Pemberville, OH

2:37 AM EDT on October 01, 2016 (GMT -0400)
Lemoyne | | Change Station

Elev 640 ft 41.49 °N, 83.47 °W | Updated 40 seconds ago

Light Rain
Light Rain Mist
60.4 °F
Feels Like 60.4 °F
N
1.3
Wind Variable Wind from East
Gusts 2.5 mph

Today
High -- | Low -- °F
--% Chance of Precip.
Yesterday
High -- | Low -- °F
Precip. -- in
Pressure 30.06 in
Visibility 4.0 miles
Clouds Mostly Cloudy 1500 ft
Overcast 7500 ft
Dew Point 60 °F
Humidity 99%
Rainfall 0.14 in
Snow Depth Not available.
7:31 AM 7:14 PM
New Moon, 0% visible
SPECI KTDZ 010608Z AUTO 10009KT 4SM -RA BR BKN015 OVC075 16/16 A3006 RMK AO2 LTG DSNT SW P0002 T01560156
Pressure 30.06 in
Visibility 4.0 miles
Clouds Mostly Cloudy 1500 ft
Overcast 7500 ft
Dew Point 60 °F
Humidity 99%
Rainfall 0.14 in
Snow Depth Not available.
7:31 AM 7:14 PM
New Moon, 0% visible
SPECI KTDZ 010608Z AUTO 10009KT 4SM -RA BR BKN015 OVC075 16/16 A3006 RMK AO2 LTG DSNT SW P0002 T01560156

10-Day Weather Forecast

Almanac

Astronomy

Oct. 01, 2016 Rise Set
Actual Time
Civil Twilight
Nautical Twilight
Astronomical Twilight
Moon
Length of Visible Light
Length of Day
Tomorrow will be .
, % of the Moon is Illuminated

Today's Extremes

State Highs State Lows

Community

WunderPhotos

Upload Photos

1,942,898 photos uploaded!

WunderBlog® & News

Nearby

Air Quality

  Air Quality AQ Index Pollutant
Not available.

Snow Depth

Station Depth Elevation

Earthquake Activity

City Distance Mag. Time & Date
Minimum magnitude displayed is 2.5.

Coastal Water Temperatures

Place Temperature

Stations

Nearby Weather Stations

Station Location Temp. Windchill Dew Point Humidity Wind Precip. Elev Updated Type
                   

Watches & Warnings

There are currently no watches in effect.